sensor_id;sensor_type;location;lat;lon;timestamp;temperature;humidity
8862;DHT22;4799;50.996;4.754;2023-07-29T00:01:33;20.60;99.90
8862;DHT22;4799;50.996;4.754;2023-07-29T00:03:59;20.60;99.90
8862;DHT22;4799;50.996;4.754;2023-07-29T00:06:25;20.50;99.90
8862;DHT22;4799;50.996;4.754;2023-07-29T00:08:50;20.50;99.90
8862;DHT22;4799;50.996;4.754;2023-07-29T00:11:16;20.50;99.90
8862;DHT22;4799;50.996;4.754;2023-07-29T00:13:42;20.50;99.90
8862;DHT22;4799;50.996;4.754;2023-07-29T00:16:08;20.40;99.90
8862;DHT22;4799;50.996;4.754;2023-07-29T00:18:33;20.40;99.90
8862;DHT22;4799;50.996;4.754;2023-07-29T00:20:59;20.30;99.90
8862;DHT22;4799;50.996;4.754;2023-07-29T00:23:25;20.30;99.90
8862;DHT22;4799;50.996;4.754;2023-07-29T00:25:50;20.20;99.90
8862;DHT22;4799;50.996;4.754;2023-07-29T00:28:16;20.20;99.90
8862;DHT22;4799;50.996;4.754;2023-07-29T00:30:42;20.10;99.90
8862;DHT22;4799;50.996;4.754;2023-07-29T00:33:08;20.10;99.90
8862;DHT22;4799;50.996;4.754;2023-07-29T00:35:34;20.10;99.90
8862;DHT22;4799;50.996;4.754;2023-07-29T00:38:00;20.00;99.90
8862;DHT22;4799;50.996;4.754;2023-07-29T00:40:28;20.00;99.90
8862;DHT22;4799;50.996;4.754;2023-07-29T00:42:54;19.90;99.90
8862;DHT22;4799;50.996;4.754;2023-07-29T00:45:20;19.90;99.90
8862;DHT22;4799;50.996;4.754;2023-07-29T00:47:46;19.80;99.90
8862;DHT22;4799;50.996;4.754;2023-07-29T00:50:13;19.80;99.90
8862;DHT22;4799;50.996;4.754;2023-07-29T00:52:40;19.70;99.90
8862;DHT22;4799;50.996;4.754;2023-07-29T00:55:06;19.70;99.90
8862;DHT22;4799;50.996;4.754;2023-07-29T00:57:33;19.60;99.90
8862;DHT22;4799;50.996;4.754;2023-07-29T01:00:00;19.50;99.90
8862;DHT22;4799;50.996;4.754;2023-07-29T01:02:26;19.50;99.90
8862;DHT22;4799;50.996;4.754;2023-07-29T01:04:56;19.40;99.90
8862;DHT22;4799;50.996;4.754;2023-07-29T01:08:13;19.40;99.90
8862;DHT22;4799;50.996;4.754;2023-07-29T01:13:29;19.30;99.90
8862;DHT22;4799;50.996;4.754;2023-07-29T01:16:24;19.20;99.90
8862;DHT22;4799;50.996;4.754;2023-07-29T01:18:54;19.20;99.90
8862;DHT22;4799;50.996;4.754;2023-07-29T01:21:21;19.10;99.90
8862;DHT22;4799;50.996;4.754;2023-07-29T01:23:47;19.00;99.90
8862;DHT22;4799;50.996;4.754;2023-07-29T01:26:13;19.00;99.90
8862;DHT22;4799;50.996;4.754;2023-07-29T01:28:39;19.00;99.90
8862;DHT22;4799;50.996;4.754;2023-07-29T01:31:27;18.90;99.90
8862;DHT22;4799;50.996;4.754;2023-07-29T01:34:10;18.90;99.90
8862;DHT22;4799;50.996;4.754;2023-07-29T01:36:37;18.90;99.90
8862;DHT22;4799;50.996;4.754;2023-07-29T01:39:06;18.80;99.90
8862;DHT22;4799;50.996;4.754;2023-07-29T01:41:33;18.80;99.90
8862;DHT22;4799;50.996;4.754;2023-07-29T01:43:59;18.80;99.90
8862;DHT22;4799;50.996;4.754;2023-07-29T01:46:25;18.80;99.90
8862;DHT22;4799;50.996;4.754;2023-07-29T01:48:51;18.70;99.90
8862;DHT22;4799;50.996;4.754;2023-07-29T01:51:17;18.70;99.90
8862;DHT22;4799;50.996;4.754;2023-07-29T01:53:42;18.70;99.90
8862;DHT22;4799;50.996;4.754;2023-07-29T01:56:08;18.60;99.90
8862;DHT22;4799;50.996;4.754;2023-07-29T01:58:34;18.60;99.90
8862;DHT22;4799;50.996;4.754;2023-07-29T02:00:59;18.60;99.90
8862;DHT22;4799;50.996;4.754;2023-07-29T02:03:25;18.60;99.90
8862;DHT22;4799;50.996;4.754;2023-07-29T02:05:51;18.60;99.90
8862;DHT22;4799;50.996;4.754;2023-07-29T02:08:16;18.60;99.90
8862;DHT22;4799;50.996;4.754;2023-07-29T02:10:42;18.60;99.90
8862;DHT22;4799;50.996;4.754;2023-07-29T02:13:11;18.50;99.90
8862;DHT22;4799;50.996;4.754;2023-07-29T02:15:37;18.50;99.90
8862;DHT22;4799;50.996;4.754;2023-07-29T02:18:02;18.50;99.90
8862;DHT22;4799;50.996;4.754;2023-07-29T02:20:29;18.50;99.90
8862;DHT22;4799;50.996;4.754;2023-07-29T02:22:54;18.50;99.90
8862;DHT22;4799;50.996;4.754;2023-07-29T02:25:20;18.40;99.90
8862;DHT22;4799;50.996;4.754;2023-07-29T02:27:46;18.40;99.90
8862;DHT22;4799;50.996;4.754;2023-07-29T02:30:11;18.40;99.90
8862;DHT22;4799;50.996;4.754;2023-07-29T02:32:38;18.40;99.90
8862;DHT22;4799;50.996;4.754;2023-07-29T02:35:04;18.30;99.90
8862;DHT22;4799;50.996;4.754;2023-07-29T02:37:30;18.30;99.90
8862;DHT22;4799;50.996;4.754;2023-07-29T02:39:56;18.30;99.90
8862;DHT22;4799;50.996;4.754;2023-07-29T02:42:21;18.30;99.90
8862;DHT22;4799;50.996;4.754;2023-07-29T02:44:47;18.20;99.90
8862;DHT22;4799;50.996;4.754;2023-07-29T02:47:13;18.20;99.90
8862;DHT22;4799;50.996;4.754;2023-07-29T02:49:38;18.20;99.90
8862;DHT22;4799;50.996;4.754;2023-07-29T02:52:04;18.20;99.90
8862;DHT22;4799;50.996;4.754;2023-07-29T02:54:30;18.20;99.90
8862;DHT22;4799;50.996;4.754;2023-07-29T02:56:56;18.20;99.90
8862;DHT22;4799;50.996;4.754;2023-07-29T02:59:21;18.10;99.90
8862;DHT22;4799;50.996;4.754;2023-07-29T03:01:47;18.10;99.90
8862;DHT22;4799;50.996;4.754;2023-07-29T03:04:13;18.10;99.90
8862;DHT22;4799;50.996;4.754;2023-07-29T03:06:39;18.00;99.90
8862;DHT22;4799;50.996;4.754;2023-07-29T03:09:04;18.00;99.90
8862;DHT22;4799;50.996;4.754;2023-07-29T03:11:30;18.00;99.90
8862;DHT22;4799;50.996;4.754;2023-07-29T03:13:57;18.00;99.90
8862;DHT22;4799;50.996;4.754;2023-07-29T03:16:22;18.00;99.90
8862;DHT22;4799;50.996;4.754;2023-07-29T03:18:49;18.00;99.90
8862;DHT22;4799;50.996;4.754;2023-07-29T03:21:15;17.90;99.90
8862;DHT22;4799;50.996;4.754;2023-07-29T03:23:41;17.90;99.90
8862;DHT22;4799;50.996;4.754;2023-07-29T03:26:07;17.90;99.90
8862;DHT22;4799;50.996;4.754;2023-07-29T03:28:40;17.90;99.90
8862;DHT22;4799;50.996;4.754;2023-07-29T03:31:06;17.80;99.90
8862;DHT22;4799;50.996;4.754;2023-07-29T03:33:32;17.80;99.90
8862;DHT22;4799;50.996;4.754;2023-07-29T03:35:58;17.80;99.90
8862;DHT22;4799;50.996;4.754;2023-07-29T03:38:24;17.80;99.90
8862;DHT22;4799;50.996;4.754;2023-07-29T03:40:50;17.80;99.90
8862;DHT22;4799;50.996;4.754;2023-07-29T03:43:16;17.80;99.90
8862;DHT22;4799;50.996;4.754;2023-07-29T03:45:41;17.80;99.90
8862;DHT22;4799;50.996;4.754;2023-07-29T03:48:07;17.70;99.90
8862;DHT22;4799;50.996;4.754;2023-07-29T03:50:34;17.70;99.90
8862;DHT22;4799;50.996;4.754;2023-07-29T03:53:03;17.60;99.90
8862;DHT22;4799;50.996;4.754;2023-07-29T03:55:29;17.70;99.90
8862;DHT22;4799;50.996;4.754;2023-07-29T03:57:57;17.70;99.90
8862;DHT22;4799;50.996;4.754;2023-07-29T04:00:23;17.70;99.90
8862;DHT22;4799;50.996;4.754;2023-07-29T04:02:49;17.70;99.90
8862;DHT22;4799;50.996;4.754;2023-07-29T04:05:15;17.60;99.90
8862;DHT22;4799;50.996;4.754;2023-07-29T04:07:40;17.70;99.90
8862;DHT22;4799;50.996;4.754;2023-07-29T04:10:07;17.70;99.90
8862;DHT22;4799;50.996;4.754;2023-07-29T04:12:33;17.70;99.90
8862;DHT22;4799;50.996;4.754;2023-07-29T04:14:59;17.70;99.90
8862;DHT22;4799;50.996;4.754;2023-07-29T04:17:24;17.70;99.90
8862;DHT22;4799;50.996;4.754;2023-07-29T04:19:50;17.60;99.90
8862;DHT22;4799;50.996;4.754;2023-07-29T04:22:16;17.70;99.90
8862;DHT22;4799;50.996;4.754;2023-07-29T04:24:42;17.70;99.90
8862;DHT22;4799;50.996;4.754;2023-07-29T04:27:08;17.70;99.90
8862;DHT22;4799;50.996;4.754;2023-07-29T04:29:34;17.80;99.90
8862;DHT22;4799;50.996;4.754;2023-07-29T04:32:02;17.80;99.90
8862;DHT22;4799;50.996;4.754;2023-07-29T04:34:28;17.80;99.90
8862;DHT22;4799;50.996;4.754;2023-07-29T04:36:54;17.80;99.90
8862;DHT22;4799;50.996;4.754;2023-07-29T04:39:19;17.70;99.90
8862;DHT22;4799;50.996;4.754;2023-07-29T04:41:45;17.70;99.90
8862;DHT22;4799;50.996;4.754;2023-07-29T04:44:11;17.70;99.90
8862;DHT22;4799;50.996;4.754;2023-07-29T04:46:37;17.60;99.90
8862;DHT22;4799;50.996;4.754;2023-07-29T04:49:04;17.60;99.90
8862;DHT22;4799;50.996;4.754;2023-07-29T04:51:29;17.70;99.90
8862;DHT22;4799;50.996;4.754;2023-07-29T04:53:57;17.60;99.90
8862;DHT22;4799;50.996;4.754;2023-07-29T04:56:23;17.70;99.90
8862;DHT22;4799;50.996;4.754;2023-07-29T04:58:48;17.70;99.90
8862;DHT22;4799;50.996;4.754;2023-07-29T05:01:14;17.80;99.90
8862;DHT22;4799;50.996;4.754;2023-07-29T05:03:40;17.80;99.90
8862;DHT22;4799;50.996;4.754;2023-07-29T05:06:06;17.80;99.90
8862;DHT22;4799;50.996;4.754;2023-07-29T05:08:31;17.90;99.90
8862;DHT22;4799;50.996;4.754;2023-07-29T05:10:57;17.90;99.90
8862;DHT22;4799;50.996;4.754;2023-07-29T05:13:23;17.90;99.90
8862;DHT22;4799;50.996;4.754;2023-07-29T05:15:49;17.90;99.90
8862;DHT22;4799;50.996;4.754;2023-07-29T05:18:16;18.00;99.90
8862;DHT22;4799;50.996;4.754;2023-07-29T05:20:42;18.00;99.90
8862;DHT22;4799;50.996;4.754;2023-07-29T05:23:08;18.00;99.90
8862;DHT22;4799;50.996;4.754;2023-07-29T05:25:33;18.10;99.90
8862;DHT22;4799;50.996;4.754;2023-07-29T05:28:03;18.20;99.90
8862;DHT22;4799;50.996;4.754;2023-07-29T05:30:29;18.30;99.90
8862;DHT22;4799;50.996;4.754;2023-07-29T05:33:00;18.40;99.90
8862;DHT22;4799;50.996;4.754;2023-07-29T05:35:26;18.50;99.90
8862;DHT22;4799;50.996;4.754;2023-07-29T05:37:52;18.60;99.90
8862;DHT22;4799;50.996;4.754;2023-07-29T05:40:18;18.70;99.90
8862;DHT22;4799;50.996;4.754;2023-07-29T05:42:44;18.80;99.90
8862;DHT22;4799;50.996;4.754;2023-07-29T05:45:11;18.80;99.90
8862;DHT22;4799;50.996;4.754;2023-07-29T05:47:37;18.80;99.90
8862;DHT22;4799;50.996;4.754;2023-07-29T05:50:04;18.80;99.90
8862;DHT22;4799;50.996;4.754;2023-07-29T05:52:33;18.80;99.90
8862;DHT22;4799;50.996;4.754;2023-07-29T05:54:59;18.70;99.90
8862;DHT22;4799;50.996;4.754;2023-07-29T05:57:25;18.70;99.90
8862;DHT22;4799;50.996;4.754;2023-07-29T05:59:51;18.80;99.90
8862;DHT22;4799;50.996;4.754;2023-07-29T06:02:16;18.90;99.90
8862;DHT22;4799;50.996;4.754;2023-07-29T06:04:42;19.00;99.90
8862;DHT22;4799;50.996;4.754;2023-07-29T06:07:08;19.30;99.90
8862;DHT22;4799;50.996;4.754;2023-07-29T06:09:34;19.50;99.90
8862;DHT22;4799;50.996;4.754;2023-07-29T06:11:59;19.70;99.90
8862;DHT22;4799;50.996;4.754;2023-07-29T06:14:25;19.90;99.90
8862;DHT22;4799;50.996;4.754;2023-07-29T06:16:51;20.00;99.90
8862;DHT22;4799;50.996;4.754;2023-07-29T06:19:19;20.10;99.90
8862;DHT22;4799;50.996;4.754;2023-07-29T06:21:45;20.20;99.90
8862;DHT22;4799;50.996;4.754;2023-07-29T06:24:11;20.30;99.90
8862;DHT22;4799;50.996;4.754;2023-07-29T06:26:36;20.30;99.90
8862;DHT22;4799;50.996;4.754;2023-07-29T06:29:02;20.40;99.90
8862;DHT22;4799;50.996;4.754;2023-07-29T06:31:28;20.50;99.90
8862;DHT22;4799;50.996;4.754;2023-07-29T06:33:55;20.50;99.90
8862;DHT22;4799;50.996;4.754;2023-07-29T06:36:21;20.60;99.90
8862;DHT22;4799;50.996;4.754;2023-07-29T06:38:46;20.70;99.90
8862;DHT22;4799;50.996;4.754;2023-07-29T06:41:12;20.80;99.90
8862;DHT22;4799;50.996;4.754;2023-07-29T06:43:38;20.90;99.90
8862;DHT22;4799;50.996;4.754;2023-07-29T06:46:04;20.90;99.90
8862;DHT22;4799;50.996;4.754;2023-07-29T06:48:29;21.00;99.90
8862;DHT22;4799;50.996;4.754;2023-07-29T06:50:55;21.00;99.90
8862;DHT22;4799;50.996;4.754;2023-07-29T06:53:28;21.10;99.90
8862;DHT22;4799;50.996;4.754;2023-07-29T06:55:54;21.20;99.90
8862;DHT22;4799;50.996;4.754;2023-07-29T06:58:20;21.20;99.90
8862;DHT22;4799;50.996;4.754;2023-07-29T07:00:45;21.30;99.90
8862;DHT22;4799;50.996;4.754;2023-07-29T07:03:11;21.40;99.90
8862;DHT22;4799;50.996;4.754;2023-07-29T07:05:37;21.50;99.90
8862;DHT22;4799;50.996;4.754;2023-07-29T07:08:03;21.60;99.90
8862;DHT22;4799;50.996;4.754;2023-07-29T07:10:28;21.60;99.90
8862;DHT22;4799;50.996;4.754;2023-07-29T07:12:54;21.70;99.90
8862;DHT22;4799;50.996;4.754;2023-07-29T07:15:20;21.80;99.90
8862;DHT22;4799;50.996;4.754;2023-07-29T07:17:45;22.00;99.90
8862;DHT22;4799;50.996;4.754;2023-07-29T07:20:11;22.20;99.90
8862;DHT22;4799;50.996;4.754;2023-07-29T07:22:37;22.40;99.90
8862;DHT22;4799;50.996;4.754;2023-07-29T07:25:03;22.60;99.90
8862;DHT22;4799;50.996;4.754;2023-07-29T07:27:29;22.70;99.90
8862;DHT22;4799;50.996;4.754;2023-07-29T07:29:54;22.80;99.90
8862;DHT22;4799;50.996;4.754;2023-07-29T07:32:20;22.90;99.90
8862;DHT22;4799;50.996;4.754;2023-07-29T07:34:46;23.10;99.90
8862;DHT22;4799;50.996;4.754;2023-07-29T07:37:12;23.10;99.90
8862;DHT22;4799;50.996;4.754;2023-07-29T07:39:38;23.10;99.90
8862;DHT22;4799;50.996;4.754;2023-07-29T07:42:04;23.10;99.90
8862;DHT22;4799;50.996;4.754;2023-07-29T07:44:30;23.00;99.90
8862;DHT22;4799;50.996;4.754;2023-07-29T07:46:56;22.90;99.90
8862;DHT22;4799;50.996;4.754;2023-07-29T07:49:22;22.80;99.90
8862;DHT22;4799;50.996;4.754;2023-07-29T07:51:48;22.70;99.90
8862;DHT22;4799;50.996;4.754;2023-07-29T07:54:13;22.60;99.90
8862;DHT22;4799;50.996;4.754;2023-07-29T07:56:39;22.50;99.90
8862;DHT22;4799;50.996;4.754;2023-07-29T07:59:05;22.40;99.90
8862;DHT22;4799;50.996;4.754;2023-07-29T08:01:34;22.30;99.90
8862;DHT22;4799;50.996;4.754;2023-07-29T08:04:01;22.30;99.90
8862;DHT22;4799;50.996;4.754;2023-07-29T08:06:27;22.30;99.90
8862;DHT22;4799;50.996;4.754;2023-07-29T08:08:52;22.40;99.90
8862;DHT22;4799;50.996;4.754;2023-07-29T08:11:18;22.60;99.90
8862;DHT22;4799;50.996;4.754;2023-07-29T08:13:44;22.90;99.90
8862;DHT22;4799;50.996;4.754;2023-07-29T08:16:09;23.10;99.90
8862;DHT22;4799;50.996;4.754;2023-07-29T08:18:35;23.30;99.90
8862;DHT22;4799;50.996;4.754;2023-07-29T08:21:01;23.40;99.90
8862;DHT22;4799;50.996;4.754;2023-07-29T08:23:31;23.50;99.90
8862;DHT22;4799;50.996;4.754;2023-07-29T08:25:59;23.60;99.90
8862;DHT22;4799;50.996;4.754;2023-07-29T08:28:30;23.50;99.90
8862;DHT22;4799;50.996;4.754;2023-07-29T08:30:56;23.40;99.90
8862;DHT22;4799;50.996;4.754;2023-07-29T08:33:22;23.30;99.90
8862;DHT22;4799;50.996;4.754;2023-07-29T08:35:48;23.20;99.90
8862;DHT22;4799;50.996;4.754;2023-07-29T08:38:13;23.20;99.90
8862;DHT22;4799;50.996;4.754;2023-07-29T08:41:31;23.10;99.90
8862;DHT22;4799;50.996;4.754;2023-07-29T08:43:32;23.10;99.90
8862;DHT22;4799;50.996;4.754;2023-07-29T08:46:00;23.10;99.90
8862;DHT22;4799;50.996;4.754;2023-07-29T08:48:40;23.10;99.90
8862;DHT22;4799;50.996;4.754;2023-07-29T08:51:08;23.20;99.90
8862;DHT22;4799;50.996;4.754;2023-07-29T08:53:35;23.20;99.90
8862;DHT22;4799;50.996;4.754;2023-07-29T08:56:02;23.20;99.90
8862;DHT22;4799;50.996;4.754;2023-07-29T08:58:28;23.30;99.90
8862;DHT22;4799;50.996;4.754;2023-07-29T09:00:54;23.40;99.90
8862;DHT22;4799;50.996;4.754;2023-07-29T09:03:21;23.50;99.90
8862;DHT22;4799;50.996;4.754;2023-07-29T09:05:47;23.60;99.90
8862;DHT22;4799;50.996;4.754;2023-07-29T09:08:13;23.80;99.90
8862;DHT22;4799;50.996;4.754;2023-07-29T09:10:39;24.10;99.90
8862;DHT22;4799;50.996;4.754;2023-07-29T09:13:05;24.30;99.90
8862;DHT22;4799;50.996;4.754;2023-07-29T09:15:35;24.30;99.90
8862;DHT22;4799;50.996;4.754;2023-07-29T09:18:14;24.30;99.90
8862;DHT22;4799;50.996;4.754;2023-07-29T09:20:40;24.10;99.90
8862;DHT22;4799;50.996;4.754;2023-07-29T09:23:08;24.10;99.90
8862;DHT22;4799;50.996;4.754;2023-07-29T09:25:36;24.10;99.90
8862;DHT22;4799;50.996;4.754;2023-07-29T09:28:10;24.20;99.90
8862;DHT22;4799;50.996;4.754;2023-07-29T09:30:38;24.40;99.90
8862;DHT22;4799;50.996;4.754;2023-07-29T09:33:03;24.90;99.90
8862;DHT22;4799;50.996;4.754;2023-07-29T09:35:32;25.30;99.90
8862;DHT22;4799;50.996;4.754;2023-07-29T09:37:58;25.50;99.90
8862;DHT22;4799;50.996;4.754;2023-07-29T09:40:23;25.60;99.90
8862;DHT22;4799;50.996;4.754;2023-07-29T09:42:51;25.90;99.90
8862;DHT22;4799;50.996;4.754;2023-07-29T09:45:27;26.00;99.90
8862;DHT22;4799;50.996;4.754;2023-07-29T09:47:57;26.30;99.90
8862;DHT22;4799;50.996;4.754;2023-07-29T09:50:24;26.50;99.90
8862;DHT22;4799;50.996;4.754;2023-07-29T09:52:51;26.60;99.90
8862;DHT22;4799;50.996;4.754;2023-07-29T09:55:18;26.60;99.90
8862;DHT22;4799;50.996;4.754;2023-07-29T09:57:45;26.60;99.90
8862;DHT22;4799;50.996;4.754;2023-07-29T10:00:11;26.60;99.90
8862;DHT22;4799;50.996;4.754;2023-07-29T10:02:42;26.60;99.90
8862;DHT22;4799;50.996;4.754;2023-07-29T10:05:09;26.70;99.90
8862;DHT22;4799;50.996;4.754;2023-07-29T10:07:39;26.80;99.70
8862;DHT22;4799;50.996;4.754;2023-07-29T10:10:07;26.80;98.00
8862;DHT22;4799;50.996;4.754;2023-07-29T10:12:34;26.70;98.40
8862;DHT22;4799;50.996;4.754;2023-07-29T10:15:04;26.50;98.70
8862;DHT22;4799;50.996;4.754;2023-07-29T10:17:34;26.40;98.80
8862;DHT22;4799;50.996;4.754;2023-07-29T10:20:01;26.40;99.00
8862;DHT22;4799;50.996;4.754;2023-07-29T10:22:32;26.50;99.50
8862;DHT22;4799;50.996;4.754;2023-07-29T10:25:18;26.60;98.80
8862;DHT22;4799;50.996;4.754;2023-07-29T10:27:56;26.80;98.70
8862;DHT22;4799;50.996;4.754;2023-07-29T10:30:25;27.10;98.30
8862;DHT22;4799;50.996;4.754;2023-07-29T10:32:54;27.30;97.70
8862;DHT22;4799;50.996;4.754;2023-07-29T10:35:22;27.60;97.10
8862;DHT22;4799;50.996;4.754;2023-07-29T10:37:48;27.80;95.80
8862;DHT22;4799;50.996;4.754;2023-07-29T10:40:16;28.10;95.60
8862;DHT22;4799;50.996;4.754;2023-07-29T10:43:03;28.30;94.50
8862;DHT22;4799;50.996;4.754;2023-07-29T10:45:41;28.40;92.80
8862;DHT22;4799;50.996;4.754;2023-07-29T10:51:36;28.80;92.50
8862;DHT22;4799;50.996;4.754;2023-07-29T10:54:13;29.10;89.50
8862;DHT22;4799;50.996;4.754;2023-07-29T10:56:47;29.20;87.80
8862;DHT22;4799;50.996;4.754;2023-07-29T11:01:40;29.20;88.80
8862;DHT22;4799;50.996;4.754;2023-07-29T11:07:18;28.90;87.60
8862;DHT22;4799;50.996;4.754;2023-07-29T11:12:41;28.20;91.40
8862;DHT22;4799;50.996;4.754;2023-07-29T11:17:58;26.90;97.10
8862;DHT22;4799;50.996;4.754;2023-07-29T11:20:29;26.20;99.90
8862;DHT22;4799;50.996;4.754;2023-07-29T11:22:56;25.60;99.90
8862;DHT22;4799;50.996;4.754;2023-07-29T11:25:23;25.10;99.90
8862;DHT22;4799;50.996;4.754;2023-07-29T11:27:52;24.80;99.90
8862;DHT22;4799;50.996;4.754;2023-07-29T11:30:18;24.90;99.90
8862;DHT22;4799;50.996;4.754;2023-07-29T11:32:45;25.10;99.90
8862;DHT22;4799;50.996;4.754;2023-07-29T11:35:14;25.20;99.90
8862;DHT22;4799;50.996;4.754;2023-07-29T11:37:48;25.30;99.90
8862;DHT22;4799;50.996;4.754;2023-07-29T11:40:15;25.20;99.90
8862;DHT22;4799;50.996;4.754;2023-07-29T11:42:41;25.10;99.90
8862;DHT22;4799;50.996;4.754;2023-07-29T11:45:07;25.00;99.90
8862;DHT22;4799;50.996;4.754;2023-07-29T11:47:34;24.80;99.90
8862;DHT22;4799;50.996;4.754;2023-07-29T11:50:10;24.80;99.90
8862;DHT22;4799;50.996;4.754;2023-07-29T11:52:37;24.80;99.90
8862;DHT22;4799;50.996;4.754;2023-07-29T11:55:04;25.00;99.90
8862;DHT22;4799;50.996;4.754;2023-07-29T11:57:30;25.40;99.90
8862;DHT22;4799;50.996;4.754;2023-07-29T11:59:57;25.70;99.90
8862;DHT22;4799;50.996;4.754;2023-07-29T12:02:24;26.00;99.90
8862;DHT22;4799;50.996;4.754;2023-07-29T12:04:51;26.20;99.90
8862;DHT22;4799;50.996;4.754;2023-07-29T12:07:18;26.50;99.90
8862;DHT22;4799;50.996;4.754;2023-07-29T12:09:45;26.70;99.90
8862;DHT22;4799;50.996;4.754;2023-07-29T12:12:11;26.80;99.90
8862;DHT22;4799;50.996;4.754;2023-07-29T12:14:37;26.70;99.90
8862;DHT22;4799;50.996;4.754;2023-07-29T12:17:05;26.70;99.90
8862;DHT22;4799;50.996;4.754;2023-07-29T12:19:38;26.60;99.90
8862;DHT22;4799;50.996;4.754;2023-07-29T12:22:06;26.50;99.90
8862;DHT22;4799;50.996;4.754;2023-07-29T12:24:37;26.50;99.90
8862;DHT22;4799;50.996;4.754;2023-07-29T12:27:03;26.60;99.90
8862;DHT22;4799;50.996;4.754;2023-07-29T12:29:29;26.50;99.90
8862;DHT22;4799;50.996;4.754;2023-07-29T12:31:59;26.50;99.90
8862;DHT22;4799;50.996;4.754;2023-07-29T12:34:27;26.40;99.90
8862;DHT22;4799;50.996;4.754;2023-07-29T12:36:57;26.40;99.90
8862;DHT22;4799;50.996;4.754;2023-07-29T12:39:32;26.20;99.90
8862;DHT22;4799;50.996;4.754;2023-07-29T12:42:00;25.80;99.90
8862;DHT22;4799;50.996;4.754;2023-07-29T12:44:30;25.40;99.90
8862;DHT22;4799;50.996;4.754;2023-07-29T12:46:56;24.80;99.90
8862;DHT22;4799;50.996;4.754;2023-07-29T12:49:21;24.40;99.90
8862;DHT22;4799;50.996;4.754;2023-07-29T12:51:48;23.80;99.90
8862;DHT22;4799;50.996;4.754;2023-07-29T12:54:13;23.20;99.90
8862;DHT22;4799;50.996;4.754;2023-07-29T12:56:39;22.90;99.90
8862;DHT22;4799;50.996;4.754;2023-07-29T12:59:05;22.90;99.90
8862;DHT22;4799;50.996;4.754;2023-07-29T13:01:31;23.00;99.90
8862;DHT22;4799;50.996;4.754;2023-07-29T13:03:57;23.30;99.90
8862;DHT22;4799;50.996;4.754;2023-07-29T13:06:23;23.70;99.90
8862;DHT22;4799;50.996;4.754;2023-07-29T13:08:49;23.90;99.90
8862;DHT22;4799;50.996;4.754;2023-07-29T13:11:15;24.00;99.90
8862;DHT22;4799;50.996;4.754;2023-07-29T13:13:41;24.00;99.90
8862;DHT22;4799;50.996;4.754;2023-07-29T13:16:07;24.00;99.90
8862;DHT22;4799;50.996;4.754;2023-07-29T13:18:33;23.90;99.90
8862;DHT22;4799;50.996;4.754;2023-07-29T13:20:59;23.80;99.90
8862;DHT22;4799;50.996;4.754;2023-07-29T13:23:26;23.90;99.90
8862;DHT22;4799;50.996;4.754;2023-07-29T13:25:52;24.10;99.90
8862;DHT22;4799;50.996;4.754;2023-07-29T13:28:18;24.20;99.90
8862;DHT22;4799;50.996;4.754;2023-07-29T13:30:44;24.20;99.90
8862;DHT22;4799;50.996;4.754;2023-07-29T13:33:10;24.10;99.90
8862;DHT22;4799;50.996;4.754;2023-07-29T13:35:36;24.10;99.90
8862;DHT22;4799;50.996;4.754;2023-07-29T13:38:02;24.30;99.90
8862;DHT22;4799;50.996;4.754;2023-07-29T13:40:28;24.30;99.90
8862;DHT22;4799;50.996;4.754;2023-07-29T13:42:54;24.30;99.90
8862;DHT22;4799;50.996;4.754;2023-07-29T13:45:20;24.30;99.90
8862;DHT22;4799;50.996;4.754;2023-07-29T13:47:46;24.30;99.90
8862;DHT22;4799;50.996;4.754;2023-07-29T13:50:12;24.40;99.90
8862;DHT22;4799;50.996;4.754;2023-07-29T13:52:38;24.40;99.90
8862;DHT22;4799;50.996;4.754;2023-07-29T13:55:04;24.50;99.90
8862;DHT22;4799;50.996;4.754;2023-07-29T13:57:31;24.60;99.90
8862;DHT22;4799;50.996;4.754;2023-07-29T13:59:57;24.70;99.90
8862;DHT22;4799;50.996;4.754;2023-07-29T14:02:23;24.80;99.90
8862;DHT22;4799;50.996;4.754;2023-07-29T14:04:49;25.00;99.90
8862;DHT22;4799;50.996;4.754;2023-07-29T14:07:14;25.40;99.90
8862;DHT22;4799;50.996;4.754;2023-07-29T14:09:41;25.80;99.90
8862;DHT22;4799;50.996;4.754;2023-07-29T14:12:08;26.10;99.90
8862;DHT22;4799;50.996;4.754;2023-07-29T14:14:38;26.40;99.90
8862;DHT22;4799;50.996;4.754;2023-07-29T14:17:04;26.60;99.90
8862;DHT22;4799;50.996;4.754;2023-07-29T14:19:31;26.70;99.90
8862;DHT22;4799;50.996;4.754;2023-07-29T14:21:57;26.50;99.90
8862;DHT22;4799;50.996;4.754;2023-07-29T14:24:23;26.40;99.90
8862;DHT22;4799;50.996;4.754;2023-07-29T14:26:49;26.30;99.90
8862;DHT22;4799;50.996;4.754;2023-07-29T14:29:14;26.40;99.90
8862;DHT22;4799;50.996;4.754;2023-07-29T14:31:40;26.50;99.90
8862;DHT22;4799;50.996;4.754;2023-07-29T14:34:06;26.40;99.90
8862;DHT22;4799;50.996;4.754;2023-07-29T14:36:31;26.30;99.90
8862;DHT22;4799;50.996;4.754;2023-07-29T14:38:57;26.20;99.90
8862;DHT22;4799;50.996;4.754;2023-07-29T14:41:23;26.00;99.90
8862;DHT22;4799;50.996;4.754;2023-07-29T14:43:48;26.00;99.90
8862;DHT22;4799;50.996;4.754;2023-07-29T14:46:14;25.90;99.90
8862;DHT22;4799;50.996;4.754;2023-07-29T14:48:40;25.80;99.90
8862;DHT22;4799;50.996;4.754;2023-07-29T14:51:05;25.70;99.90
8862;DHT22;4799;50.996;4.754;2023-07-29T14:53:31;25.70;99.90
8862;DHT22;4799;50.996;4.754;2023-07-29T14:55:57;26.00;99.90
8862;DHT22;4799;50.996;4.754;2023-07-29T14:58:22;26.40;99.90
8862;DHT22;4799;50.996;4.754;2023-07-29T15:00:51;26.70;99.90
8862;DHT22;4799;50.996;4.754;2023-07-29T15:03:17;27.00;99.90
8862;DHT22;4799;50.996;4.754;2023-07-29T15:05:43;27.10;99.90
8862;DHT22;4799;50.996;4.754;2023-07-29T15:08:09;27.40;99.90
8862;DHT22;4799;50.996;4.754;2023-07-29T15:10:35;27.80;99.90
8862;DHT22;4799;50.996;4.754;2023-07-29T15:13:01;28.00;99.90
8862;DHT22;4799;50.996;4.754;2023-07-29T15:15:27;28.10;99.90
8862;DHT22;4799;50.996;4.754;2023-07-29T15:17:53;28.10;99.90
8862;DHT22;4799;50.996;4.754;2023-07-29T15:20:19;28.10;99.90
8862;DHT22;4799;50.996;4.754;2023-07-29T15:22:44;27.70;99.90
8862;DHT22;4799;50.996;4.754;2023-07-29T15:25:10;27.50;99.90
8862;DHT22;4799;50.996;4.754;2023-07-29T15:27:36;27.30;99.90
8862;DHT22;4799;50.996;4.754;2023-07-29T15:30:02;27.10;99.90
8862;DHT22;4799;50.996;4.754;2023-07-29T15:32:28;27.00;99.90
8862;DHT22;4799;50.996;4.754;2023-07-29T15:34:54;26.80;99.90
8862;DHT22;4799;50.996;4.754;2023-07-29T15:37:20;26.80;99.90
8862;DHT22;4799;50.996;4.754;2023-07-29T15:39:46;26.90;99.90
8862;DHT22;4799;50.996;4.754;2023-07-29T15:42:12;26.80;99.90
8862;DHT22;4799;50.996;4.754;2023-07-29T15:44:37;26.70;99.90
8862;DHT22;4799;50.996;4.754;2023-07-29T15:47:03;26.60;99.90
8862;DHT22;4799;50.996;4.754;2023-07-29T15:49:29;26.60;99.90
8862;DHT22;4799;50.996;4.754;2023-07-29T15:51:55;26.70;99.90
8862;DHT22;4799;50.996;4.754;2023-07-29T15:54:20;26.90;99.90
8862;DHT22;4799;50.996;4.754;2023-07-29T15:56:46;26.90;99.90
8862;DHT22;4799;50.996;4.754;2023-07-29T15:59:12;26.80;99.90
8862;DHT22;4799;50.996;4.754;2023-07-29T16:01:37;26.70;99.90
8862;DHT22;4799;50.996;4.754;2023-07-29T16:04:03;26.60;99.90
8862;DHT22;4799;50.996;4.754;2023-07-29T16:06:29;26.40;99.90
8862;DHT22;4799;50.996;4.754;2023-07-29T16:08:55;26.40;99.90
8862;DHT22;4799;50.996;4.754;2023-07-29T16:11:21;26.50;99.90
8862;DHT22;4799;50.996;4.754;2023-07-29T16:13:47;26.40;99.90
8862;DHT22;4799;50.996;4.754;2023-07-29T16:16:13;26.30;99.90
8862;DHT22;4799;50.996;4.754;2023-07-29T16:18:39;26.40;99.90